createdAt,value
2019-03-19T00:01:39.902Z,2.00
2019-03-19T00:04:09.768Z,2.00
2019-03-19T00:06:39.338Z,2.00
2019-03-19T00:09:09.177Z,2.00
2019-03-19T00:11:39.093Z,2.10
2019-03-19T00:14:08.648Z,2.10
2019-03-19T00:16:38.189Z,2.10
2019-03-19T00:19:07.726Z,2.10
2019-03-19T00:21:37.249Z,2.10
2019-03-19T00:24:07.220Z,2.20
2019-03-19T00:26:37.196Z,2.20
2019-03-19T00:29:06.728Z,2.20
2019-03-19T00:31:36.653Z,2.20
2019-03-19T00:34:06.483Z,2.10
2019-03-19T00:36:36.281Z,2.10
2019-03-19T00:39:07.460Z,2.10
2019-03-19T00:41:38.237Z,2.00
2019-03-19T00:44:09.279Z,2.00
2019-03-19T00:46:38.817Z,2.00
2019-03-19T00:49:08.712Z,2.00
2019-03-19T00:51:38.263Z,2.00
2019-03-19T00:54:07.836Z,2.00
2019-03-19T00:56:38.145Z,2.00
2019-03-19T00:59:07.677Z,1.90
2019-03-19T01:01:38.847Z,1.90
2019-03-19T01:04:08.585Z,1.90
2019-03-19T01:06:39.234Z,1.90
2019-03-19T01:09:09.250Z,1.90
2019-03-19T01:11:39.581Z,1.90
2019-03-19T01:14:09.104Z,1.80
2019-03-19T01:16:38.652Z,1.80
2019-03-19T01:19:08.197Z,1.80
2019-03-19T01:21:39.820Z,1.80
2019-03-19T01:24:09.728Z,1.70
2019-03-19T01:26:39.673Z,1.70
2019-03-19T01:29:09.574Z,1.60
2019-03-19T01:31:39.425Z,1.60
2019-03-19T01:34:09.300Z,1.60
2019-03-19T01:36:39.420Z,1.60
2019-03-19T01:39:09.250Z,1.50
2019-03-19T01:41:39.046Z,1.60
2019-03-19T01:44:08.861Z,1.60
2019-03-19T01:46:38.381Z,1.60
2019-03-19T01:49:07.912Z,1.60
2019-03-19T01:51:37.464Z,1.60
2019-03-19T01:54:07.031Z,1.60
2019-03-19T01:56:36.785Z,1.50
2019-03-19T01:59:06.331Z,1.50
2019-03-19T02:01:36.304Z,1.50
2019-03-19T02:04:05.840Z,1.50
2019-03-19T02:06:35.392Z,1.50
2019-03-19T02:09:07.144Z,1.50
2019-03-19T02:11:38.441Z,1.40
2019-03-19T02:14:08.200Z,1.40
2019-03-19T02:16:38.038Z,1.40
2019-03-19T02:19:07.562Z,1.40
2019-03-19T02:21:37.357Z,1.40
2019-03-19T02:24:06.885Z,1.40
2019-03-19T02:26:36.429Z,1.40
2019-03-19T02:29:05.968Z,1.40
2019-03-19T02:31:35.586Z,1.40
2019-03-19T02:34:05.190Z,1.40
2019-03-19T02:36:35.092Z,1.40
2019-03-19T02:39:06.169Z,1.40
2019-03-19T02:41:35.819Z,1.40
2019-03-19T02:44:05.620Z,1.40
2019-03-19T02:46:35.199Z,1.40
2019-03-19T02:49:05.075Z,1.30
2019-03-19T02:51:34.610Z,1.20
2019-03-19T02:54:04.597Z,1.20
2019-03-19T02:56:34.158Z,1.20
2019-03-19T02:59:03.784Z,1.10
2019-03-19T03:01:33.322Z,1.10
2019-03-19T03:04:03.183Z,1.00
2019-03-19T03:06:32.722Z,1.00
2019-03-19T03:09:02.378Z,1.00
2019-03-19T03:11:31.986Z,1.00
2019-03-19T03:14:01.526Z,1.10
2019-03-19T03:16:31.377Z,1.00
2019-03-19T03:19:00.902Z,1.00
2019-03-19T03:21:30.422Z,1.00
2019-03-19T03:24:00.043Z,0.90
2019-03-19T03:26:29.570Z,1.00
2019-03-19T03:28:59.110Z,0.90
2019-03-19T03:31:29.209Z,0.90
2019-03-19T03:33:58.770Z,1.00
2019-03-19T03:36:28.309Z,0.90
2019-03-19T03:38:57.828Z,0.90
2019-03-19T03:41:27.442Z,0.90
2019-03-19T03:43:57.334Z,1.00
2019-03-19T03:46:27.228Z,1.00
2019-03-19T03:48:56.837Z,0.90
2019-03-19T03:51:26.413Z,0.80
2019-03-19T03:53:55.961Z,0.80
2019-03-19T03:56:25.495Z,0.80
2019-03-19T03:59:00.770Z,0.80
2019-03-19T04:01:27.037Z,0.80
2019-03-19T04:03:56.876Z,0.70
2019-03-19T04:06:26.754Z,0.80
2019-03-19T04:08:56.294Z,0.70
2019-03-19T04:11:25.837Z,0.80
2019-03-19T04:13:55.708Z,0.80
2019-03-19T04:16:25.257Z,0.70
2019-03-19T04:18:54.788Z,0.70
2019-03-19T04:21:24.330Z,0.70
2019-03-19T04:23:55.933Z,0.70
2019-03-19T04:26:25.794Z,0.70
2019-03-19T04:28:55.354Z,0.70
2019-03-19T04:31:25.214Z,0.70
2019-03-19T04:33:55.624Z,0.70
2019-03-19T04:36:25.165Z,0.70
2019-03-19T04:38:54.934Z,0.60
2019-03-19T04:41:24.493Z,0.60
2019-03-19T04:43:54.658Z,0.60
2019-03-19T04:46:24.275Z,0.50
2019-03-19T04:48:54.266Z,0.50
2019-03-19T04:51:23.786Z,0.50
2019-03-19T04:53:53.386Z,0.50
2019-03-19T04:56:22.989Z,0.40
2019-03-19T04:58:52.890Z,0.40
2019-03-19T05:01:22.706Z,0.50
2019-03-19T05:03:52.234Z,0.40
2019-03-19T05:06:22.101Z,0.40
2019-03-19T05:08:52.137Z,0.40
2019-03-19T05:11:21.684Z,0.40
2019-03-19T05:13:51.261Z,0.40
2019-03-19T05:16:22.064Z,0.40
2019-03-19T05:18:52.015Z,0.40
2019-03-19T05:21:21.885Z,0.40
2019-03-19T05:23:51.862Z,0.40
2019-03-19T05:26:21.421Z,0.40
2019-03-19T05:28:50.958Z,0.50
2019-03-19T05:31:20.741Z,0.50
2019-03-19T05:33:50.862Z,0.50
2019-03-19T05:36:20.394Z,0.40
2019-03-19T05:38:49.924Z,0.40
2019-03-19T05:41:19.782Z,0.40
2019-03-19T05:43:49.304Z,0.40
2019-03-19T05:46:18.884Z,0.40
2019-03-19T05:48:48.416Z,0.40
2019-03-19T05:51:17.951Z,0.40
2019-03-19T05:53:47.813Z,0.40
2019-03-19T05:56:17.649Z,0.40
2019-03-19T05:58:47.196Z,0.40
2019-03-19T06:01:16.751Z,0.40
2019-03-19T06:03:46.282Z,0.50
2019-03-19T06:06:15.810Z,0.50
2019-03-19T06:08:45.349Z,0.50
2019-03-19T06:11:15.573Z,0.50
2019-03-19T06:13:45.112Z,0.60
2019-03-19T06:16:15.078Z,0.60
2019-03-19T06:18:44.620Z,0.60
2019-03-19T06:21:14.478Z,0.70
2019-03-19T06:23:44.316Z,0.70
2019-03-19T06:26:14.452Z,0.70
2019-03-19T06:28:44.318Z,0.70
2019-03-19T06:31:13.852Z,0.70
2019-03-19T06:33:43.432Z,0.70
2019-03-19T06:36:13.285Z,0.70
2019-03-19T06:38:42.833Z,0.70
2019-03-19T06:41:12.989Z,0.80
2019-03-19T06:43:42.810Z,0.80
2019-03-19T06:46:12.380Z,0.80
2019-03-19T06:48:42.628Z,0.90
2019-03-19T06:51:12.464Z,0.90
2019-03-19T06:53:42.028Z,0.90
2019-03-19T06:56:11.856Z,1.00
2019-03-19T06:58:42.065Z,1.00
2019-03-19T07:01:11.607Z,1.00
2019-03-19T07:03:41.402Z,1.10
2019-03-19T07:06:11.293Z,1.10
2019-03-19T07:08:41.612Z,1.20
2019-03-19T07:11:11.685Z,1.30
2019-03-19T07:13:41.764Z,1.30
2019-03-19T07:16:12.085Z,1.30
2019-03-19T07:18:42.319Z,1.40
2019-03-19T07:21:12.902Z,1.30
2019-03-19T07:23:43.158Z,1.40
2019-03-19T07:26:13.076Z,1.40
2019-03-19T07:28:43.187Z,1.40
2019-03-19T07:31:13.109Z,1.30
2019-03-19T07:33:49.873Z,1.40
2019-03-19T07:36:19.794Z,1.40
2019-03-19T07:38:49.330Z,1.50
2019-03-19T07:41:19.314Z,1.50
2019-03-19T07:43:48.884Z,1.70
2019-03-19T07:46:24.641Z,1.80
2019-03-19T07:48:54.182Z,1.80
2019-03-19T07:51:23.707Z,1.90
2019-03-19T07:53:54.003Z,2.00
2019-03-19T07:56:23.584Z,2.10
2019-03-19T07:58:53.796Z,2.10
2019-03-19T08:01:24.724Z,2.20
2019-03-19T08:03:54.802Z,2.30
2019-03-19T08:06:25.113Z,2.40
2019-03-19T08:08:55.149Z,2.40
2019-03-19T08:11:24.772Z,2.50
2019-03-19T08:13:55.070Z,2.60
2019-03-19T08:16:27.622Z,2.70
2019-03-19T08:18:58.268Z,2.70
2019-03-19T08:21:28.164Z,2.80
2019-03-19T08:23:58.811Z,2.90
2019-03-19T08:26:28.528Z,2.90
2019-03-19T08:28:58.349Z,2.90
2019-03-19T08:31:32.525Z,2.90
2019-03-19T08:34:03.160Z,3.00
2019-03-19T08:36:33.137Z,3.10
2019-03-19T08:39:03.933Z,3.10
2019-03-19T08:41:34.744Z,3.10
2019-03-19T08:44:06.093Z,3.20
2019-03-19T08:46:36.308Z,3.30
2019-03-19T08:49:06.185Z,3.30
2019-03-19T08:51:35.752Z,3.40
2019-03-19T08:54:05.949Z,3.50
2019-03-19T08:56:41.372Z,3.60
2019-03-19T08:59:11.609Z,3.60
2019-03-19T09:01:41.141Z,3.70
2019-03-19T09:04:10.681Z,3.80
2019-03-19T09:06:42.605Z,3.80
2019-03-19T09:09:12.742Z,3.90
2019-03-19T09:11:42.365Z,3.90
2019-03-19T09:14:12.245Z,4.00
2019-03-19T09:16:42.061Z,4.10
2019-03-19T09:19:11.574Z,4.10
2019-03-19T09:21:41.115Z,4.20
2019-03-19T09:24:10.949Z,4.30
2019-03-19T09:26:41.063Z,4.30
2019-03-19T09:29:16.768Z,4.40
2019-03-19T09:31:43.045Z,4.50
2019-03-19T09:34:13.465Z,4.60
2019-03-19T09:36:43.313Z,4.70
2019-03-19T09:39:13.316Z,4.80
2019-03-19T09:41:43.184Z,4.90
2019-03-19T09:44:13.055Z,5.10
2019-03-19T09:46:42.833Z,5.30
2019-03-19T09:49:12.654Z,5.50
2019-03-19T09:51:42.184Z,5.70
2019-03-19T09:54:11.717Z,5.90
2019-03-19T09:56:41.244Z,6.00
2019-03-19T09:59:10.817Z,6.00
2019-03-19T10:01:40.676Z,6.10
2019-03-19T10:04:10.484Z,6.00
2019-03-19T10:06:40.016Z,5.90
2019-03-19T10:09:09.541Z,5.80
2019-03-19T10:11:39.117Z,5.70
2019-03-19T10:14:09.325Z,5.70
2019-03-19T10:16:38.858Z,5.80
2019-03-19T10:19:15.196Z,5.80
2019-03-19T10:21:45.013Z,5.90
2019-03-19T10:24:15.129Z,6.00
2019-03-19T10:26:45.037Z,6.10
2019-03-19T10:29:14.576Z,6.20
2019-03-19T10:31:44.440Z,6.30
2019-03-19T10:34:14.706Z,6.40
2019-03-19T10:36:44.565Z,6.60
2019-03-19T10:39:14.080Z,6.80
2019-03-19T10:41:43.711Z,7.00
2019-03-19T10:44:13.815Z,7.20
2019-03-19T10:46:43.384Z,7.40
2019-03-19T10:49:14.378Z,7.50
2019-03-19T10:51:43.944Z,7.70
2019-03-19T10:54:13.473Z,7.80
2019-03-19T10:56:42.998Z,7.60
2019-03-19T10:59:12.856Z,7.50
2019-03-19T11:01:42.696Z,7.30
2019-03-19T11:04:12.457Z,7.20
2019-03-19T11:06:42.324Z,7.10
2019-03-19T11:09:12.453Z,7.10
2019-03-19T11:11:42.246Z,7.00
2019-03-19T11:14:12.297Z,7.00
2019-03-19T11:16:42.136Z,7.10
2019-03-19T11:19:11.653Z,7.20
2019-03-19T11:21:41.588Z,7.20
2019-03-19T11:24:12.074Z,7.30
2019-03-19T11:26:42.436Z,7.60
2019-03-19T11:29:12.549Z,7.70
2019-03-19T11:31:42.339Z,7.90
2019-03-19T11:34:12.597Z,8.00
2019-03-19T11:36:42.609Z,8.10
2019-03-19T11:39:12.422Z,8.20
2019-03-19T11:41:42.278Z,8.20
2019-03-19T11:44:11.813Z,8.10
2019-03-19T11:46:41.403Z,8.10
2019-03-19T11:49:11.255Z,8.10
2019-03-19T11:51:40.844Z,8.10
2019-03-19T11:54:10.975Z,8.10
2019-03-19T11:56:40.498Z,8.00
2019-03-19T11:59:10.012Z,7.90
2019-03-19T12:01:39.997Z,7.90
2019-03-19T12:04:10.161Z,7.90
2019-03-19T12:06:44.030Z,7.90
2019-03-19T12:09:14.042Z,7.90
2019-03-19T12:11:43.680Z,7.80
2019-03-19T12:14:14.285Z,7.80
2019-03-19T12:16:44.092Z,7.80
2019-03-19T12:19:16.974Z,7.70
2019-03-19T12:21:46.557Z,7.60
2019-03-19T12:24:16.081Z,7.60
2019-03-19T12:26:45.676Z,7.70
2019-03-19T12:29:16.006Z,7.60
2019-03-19T12:31:45.716Z,7.70
2019-03-19T12:34:15.517Z,8.00
2019-03-19T12:36:45.321Z,8.30
2019-03-19T12:39:15.465Z,8.30
2019-03-19T12:41:50.294Z,8.20
2019-03-19T12:44:20.203Z,8.20
2019-03-19T12:46:49.743Z,8.20
2019-03-19T12:49:19.552Z,8.10
2019-03-19T12:51:49.402Z,8.00
2019-03-19T12:54:19.178Z,8.00
2019-03-19T12:56:49.364Z,8.00
2019-03-19T12:59:20.578Z,7.90
2019-03-19T13:01:50.957Z,7.90
2019-03-19T13:04:20.813Z,7.90
2019-03-19T13:06:50.649Z,7.90
2019-03-19T13:09:20.469Z,7.90
2019-03-19T13:11:50.115Z,7.80
2019-03-19T13:14:20.272Z,7.80
2019-03-19T13:16:49.800Z,8.00
2019-03-19T13:19:20.081Z,8.20
2019-03-19T13:21:49.596Z,8.40
2019-03-19T13:24:19.117Z,8.50
2019-03-19T13:26:56.669Z,8.60
2019-03-19T13:29:26.217Z,8.70
2019-03-19T13:31:56.776Z,8.80
2019-03-19T13:34:27.037Z,8.80
2019-03-19T13:36:58.518Z,8.80
2019-03-19T13:39:28.867Z,8.80
2019-03-19T13:41:58.964Z,8.90
2019-03-19T13:44:29.088Z,8.90
2019-03-19T13:46:58.898Z,9.00
2019-03-19T13:49:28.427Z,9.10
2019-03-19T13:51:58.356Z,9.10
2019-03-19T13:54:28.142Z,9.10
2019-03-19T13:56:57.965Z,9.10
2019-03-19T13:59:27.845Z,9.10
2019-03-19T14:01:57.797Z,9.10
2019-03-19T14:04:27.308Z,9.10
2019-03-19T14:06:56.850Z,9.10
2019-03-19T14:09:26.994Z,9.00
2019-03-19T14:11:56.598Z,9.00
2019-03-19T14:14:26.414Z,8.90
2019-03-19T14:16:56.005Z,8.90
2019-03-19T14:19:25.554Z,8.80
2019-03-19T14:22:01.985Z,8.90
2019-03-19T14:24:32.177Z,8.90
2019-03-19T14:27:01.993Z,8.90
2019-03-19T14:29:32.212Z,8.90
2019-03-19T14:32:03.962Z,9.00
2019-03-19T14:34:33.270Z,9.00
2019-03-19T14:37:03.087Z,9.10
2019-03-19T14:39:32.688Z,9.10
2019-03-19T14:42:02.213Z,9.10
2019-03-19T14:44:31.749Z,9.20
2019-03-19T14:47:03.376Z,9.20
2019-03-19T14:49:33.164Z,9.20
2019-03-19T14:52:03.273Z,9.20
2019-03-19T14:54:33.100Z,9.20
2019-03-19T14:57:03.225Z,9.30
2019-03-19T14:59:38.148Z,9.30
2019-03-19T15:02:07.970Z,9.30
2019-03-19T15:04:37.784Z,9.30
2019-03-19T15:07:07.315Z,9.30
2019-03-19T15:09:36.829Z,9.40
2019-03-19T15:12:06.592Z,9.40
2019-03-19T15:14:36.125Z,9.30
2019-03-19T15:17:06.021Z,9.30
2019-03-19T15:19:35.829Z,9.20
2019-03-19T15:22:06.073Z,9.10
2019-03-19T15:24:36.165Z,9.20
2019-03-19T15:27:05.912Z,9.10
2019-03-19T15:29:35.441Z,9.00
2019-03-19T15:32:05.016Z,8.90
2019-03-19T15:34:34.801Z,8.90
2019-03-19T15:37:04.411Z,9.00
2019-03-19T15:39:34.218Z,9.00
2019-03-19T15:42:03.758Z,9.10
2019-03-19T15:44:33.530Z,9.10
2019-03-19T15:47:03.336Z,9.10
2019-03-19T15:49:38.108Z,9.10
2019-03-19T15:52:04.189Z,9.10
2019-03-19T15:54:33.714Z,9.10
2019-03-19T15:57:03.245Z,9.10
2019-03-19T15:59:32.764Z,9.00
2019-03-19T16:02:02.340Z,9.00
2019-03-19T16:04:32.424Z,9.00
2019-03-19T16:07:01.941Z,9.10
2019-03-19T16:09:31.780Z,9.10
2019-03-19T16:12:16.528Z,9.10
2019-03-19T16:14:46.320Z,9.10
2019-03-19T16:17:15.840Z,9.10
2019-03-19T16:19:45.858Z,9.10
2019-03-19T16:22:15.345Z,9.00
2019-03-19T16:24:45.145Z,9.00
2019-03-19T16:27:14.897Z,9.00
2019-03-19T16:29:44.409Z,9.00
2019-03-19T16:32:13.920Z,9.10
2019-03-19T16:34:44.185Z,9.00
2019-03-19T16:37:14.161Z,9.00
2019-03-19T16:39:43.706Z,9.00
2019-03-19T16:42:13.618Z,8.90
2019-03-19T16:44:43.882Z,8.80
2019-03-19T16:47:13.733Z,8.70
2019-03-19T16:49:43.541Z,8.70
2019-03-19T16:52:13.481Z,8.60
2019-03-19T16:54:43.696Z,8.50
2019-03-19T16:57:13.825Z,8.40
2019-03-19T16:59:43.839Z,8.30
2019-03-19T17:02:13.744Z,8.30
2019-03-19T17:04:43.992Z,8.30
2019-03-19T17:07:13.531Z,8.30
2019-03-19T17:09:45.376Z,8.30
2019-03-19T17:12:28.727Z,8.80
2019-03-19T17:14:58.517Z,9.30
2019-03-19T17:17:28.699Z,9.30
2019-03-19T17:19:58.497Z,9.00
2019-03-19T17:22:29.330Z,8.80
2019-03-19T17:24:58.884Z,8.60
2019-03-19T17:27:28.868Z,8.30
2019-03-19T17:29:58.989Z,8.10
2019-03-19T17:32:29.088Z,8.00
2019-03-19T17:34:58.645Z,7.90
2019-03-19T17:37:28.504Z,7.80
2019-03-19T17:39:58.043Z,7.70
2019-03-19T17:42:27.937Z,7.60
2019-03-19T17:44:57.456Z,7.50
2019-03-19T17:47:27.055Z,7.40
2019-03-19T17:49:57.256Z,7.30
2019-03-19T17:52:40.774Z,7.20
2019-03-19T17:55:11.118Z,7.10
2019-03-19T17:57:43.755Z,7.00
2019-03-19T18:00:16.669Z,6.90
2019-03-19T18:02:46.612Z,6.80
2019-03-19T18:05:20.744Z,6.70
2019-03-19T18:07:50.345Z,6.60
2019-03-19T18:10:20.250Z,6.60
2019-03-19T18:12:50.547Z,6.50
2019-03-19T18:15:20.077Z,6.40
2019-03-19T18:17:50.297Z,6.40
2019-03-19T18:20:20.150Z,6.30
2019-03-19T18:22:50.633Z,6.30
2019-03-19T18:25:26.000Z,6.20
2019-03-19T18:27:55.608Z,6.20
2019-03-19T18:30:25.189Z,6.10
2019-03-19T18:32:55.416Z,6.10
2019-03-19T18:35:24.948Z,6.00
2019-03-19T18:37:54.782Z,5.90
2019-03-19T18:40:24.732Z,5.90
2019-03-19T18:42:54.360Z,5.90
2019-03-19T18:45:24.356Z,5.80
2019-03-19T18:47:53.884Z,5.70
2019-03-19T18:50:23.600Z,5.70
2019-03-19T18:52:53.457Z,5.70
2019-03-19T18:55:23.374Z,5.60
2019-03-19T18:58:06.454Z,5.60
2019-03-19T19:00:35.994Z,5.60
2019-03-19T19:03:06.028Z,5.60
2019-03-19T19:05:35.556Z,5.50
2019-03-19T19:08:05.189Z,5.50
2019-03-19T19:10:35.063Z,5.40
2019-03-19T19:13:04.702Z,5.40
2019-03-19T19:15:34.225Z,5.30
2019-03-19T19:18:03.933Z,5.20
2019-03-19T19:20:33.505Z,5.20
2019-03-19T19:23:03.738Z,5.20
2019-03-19T19:25:33.648Z,5.10
2019-03-19T19:28:20.030Z,5.10
2019-03-19T19:30:49.580Z,5.00
2019-03-19T19:33:19.374Z,5.00
2019-03-19T19:35:48.904Z,4.90
2019-03-19T19:38:18.782Z,4.90
2019-03-19T19:40:48.772Z,4.80
2019-03-19T19:43:18.385Z,4.80
2019-03-19T19:45:48.366Z,4.80
2019-03-19T19:48:20.027Z,4.70
2019-03-19T19:50:49.736Z,4.70
2019-03-19T19:53:19.580Z,4.60
2019-03-19T19:55:49.448Z,4.60
2019-03-19T19:58:27.166Z,4.50
2019-03-19T20:00:56.812Z,4.50
2019-03-19T20:03:26.700Z,4.50
2019-03-19T20:05:56.790Z,4.40
2019-03-19T20:08:27.005Z,4.40
2019-03-19T20:10:56.817Z,4.40
2019-03-19T20:13:28.065Z,4.40
2019-03-19T20:15:57.861Z,4.40
2019-03-19T20:18:27.453Z,4.20
2019-03-19T20:20:57.652Z,4.10
2019-03-19T20:23:27.925Z,4.00
2019-03-19T20:25:58.150Z,3.90
2019-03-19T20:28:28.069Z,3.90
2019-03-19T20:30:57.977Z,3.90
2019-03-19T20:33:27.797Z,4.00
2019-03-19T20:35:57.317Z,3.90
2019-03-19T20:38:32.663Z,3.70
2019-03-19T20:41:02.494Z,3.70
2019-03-19T20:43:32.045Z,3.60
2019-03-19T20:46:01.621Z,3.60
2019-03-19T20:48:31.143Z,3.60
2019-03-19T20:51:00.672Z,3.60
2019-03-19T20:53:30.221Z,3.60
2019-03-19T20:55:59.986Z,3.60
2019-03-19T20:58:50.441Z,3.60
2019-03-19T21:01:19.959Z,3.50
2019-03-19T21:03:50.188Z,3.50
2019-03-19T21:06:20.062Z,3.50
2019-03-19T21:08:49.597Z,3.50
2019-03-19T21:11:19.444Z,3.50
2019-03-19T21:13:49.202Z,3.40
2019-03-19T21:16:18.738Z,3.40
2019-03-19T21:18:48.612Z,3.30
2019-03-19T21:21:18.170Z,3.30
2019-03-19T21:23:47.934Z,3.20
2019-03-19T21:26:19.031Z,3.20
2019-03-19T21:28:48.913Z,3.20
2019-03-19T21:31:19.068Z,3.20
2019-03-19T21:33:51.495Z,3.20
2019-03-19T21:36:20.605Z,3.20
2019-03-19T21:38:50.236Z,3.20
2019-03-19T21:41:19.839Z,3.10
2019-03-19T21:43:49.417Z,3.10
2019-03-19T21:46:19.233Z,3.00
2019-03-19T21:48:49.249Z,3.00
2019-03-19T21:51:18.782Z,2.90
2019-03-19T21:53:54.744Z,2.90
2019-03-19T21:56:25.754Z,2.90
2019-03-19T21:58:55.658Z,2.80
2019-03-19T22:01:25.420Z,2.80
2019-03-19T22:04:03.048Z,2.80
2019-03-19T22:06:26.490Z,2.80
2019-03-19T22:08:56.012Z,2.70
2019-03-19T22:11:28.580Z,2.70
2019-03-19T22:13:58.136Z,2.70
2019-03-19T22:16:27.687Z,2.70
2019-03-19T22:18:57.525Z,2.60
2019-03-19T22:21:27.348Z,2.60
2019-03-19T22:23:56.868Z,2.60
2019-03-19T22:26:26.649Z,2.60
2019-03-19T22:28:56.445Z,2.60
2019-03-19T22:31:41.213Z,2.60
2019-03-19T22:34:14.340Z,2.60
2019-03-19T22:36:42.789Z,2.60
2019-03-19T22:39:12.618Z,2.50
2019-03-19T22:41:42.412Z,2.50
2019-03-19T22:44:12.197Z,2.50
2019-03-19T22:46:42.109Z,2.50
2019-03-19T22:49:11.678Z,2.40
2019-03-19T22:51:41.243Z,2.40
2019-03-19T22:54:10.760Z,2.40
2019-03-19T22:56:40.764Z,2.30
2019-03-19T22:59:10.317Z,2.30
2019-03-19T23:01:40.135Z,2.30
2019-03-19T23:04:09.676Z,2.20
2019-03-19T23:06:39.204Z,2.20
2019-03-19T23:09:08.917Z,2.20
2019-03-19T23:11:38.437Z,2.20
2019-03-19T23:14:08.314Z,2.20
2019-03-19T23:16:38.976Z,2.30
2019-03-19T23:19:09.065Z,2.30
2019-03-19T23:21:38.992Z,2.30
2019-03-19T23:24:08.792Z,2.30
2019-03-19T23:26:38.602Z,2.20
2019-03-19T23:29:08.419Z,2.20
2019-03-19T23:31:38.753Z,2.20
2019-03-19T23:34:08.497Z,2.10
2019-03-19T23:36:38.054Z,2.10
2019-03-19T23:39:08.113Z,2.00
2019-03-19T23:41:37.967Z,2.00
2019-03-19T23:44:07.489Z,2.00
2019-03-19T23:46:37.016Z,2.00
2019-03-19T23:49:06.636Z,2.00
2019-03-19T23:51:36.507Z,1.90
2019-03-19T23:54:06.421Z,1.80
2019-03-19T23:56:35.956Z,1.80
2019-03-19T23:59:05.943Z,1.80
